La Habra, California
Current Conditions -  °F | °C
As of 1:53 AM on Friday 24 Oct 2014 (Local Time) from KFUL Reporting Station
NA  
Wind Chill: 62°   Ceiling: NA
Heat Index: 62°   Visibility: 10mi
Dew Point: 55°   Wind: 0mph
Humidity: 78%   Direction: NA
Pressure: 29.96"   Gusts: NA
Location:  33.93°N, 117.94°W
Report Text: KFUL 240853Z 00000KT 10SM 17/13 A2996 RMK AO2 SLP143 T01670128 50004 $
Loading
Personal Weather Stations






























Interactive Weather Map New forecast layout! Learn more

10-Day Weather Forecast

Advertisements
Track Severe Weather on mobile